sensor_id;sensor_type;location;lat;lon;timestamp;pressure;altitude;pressure_sealevel;temperature;humidity
11053;BME280;55230;42.602;23.470;2024-03-23T00:55:51;93539.19;;;2.16;67.32
11053;BME280;55230;42.602;23.470;2024-03-23T00:58:16;93550.66;;;2.27;66.64
11053;BME280;55230;42.602;23.470;2024-03-23T01:00:42;93545.19;;;2.20;67.16
11053;BME280;55230;42.602;23.470;2024-03-23T01:03:07;93543.69;;;2.19;68.14
11053;BME280;55230;42.602;23.470;2024-03-23T01:05:32;93536.78;;;2.20;68.41
11053;BME280;55230;42.602;23.470;2024-03-23T01:07:58;93536.78;;;2.20;68.04
11053;BME280;55230;42.602;23.470;2024-03-23T01:10:23;93533.59;;;2.14;68.34
11053;BME280;55230;42.602;23.470;2024-03-23T01:12:48;93539.75;;;2.13;68.94
11053;BME280;55230;42.602;23.470;2024-03-23T01:15:14;93525.28;;;2.08;69.06
11053;BME280;55230;42.602;23.470;2024-03-23T01:17:39;93531.97;;;2.18;68.39
11053;BME280;55230;42.602;23.470;2024-03-23T01:30:58;93524.47;;;2.22;67.69
11053;BME280;55230;42.602;23.470;2024-03-23T01:37:40;93532.25;;;1.94;69.81
11053;BME280;55230;42.602;23.470;2024-03-23T01:44:29;93495.16;;;1.38;72.62
11053;BME280;55230;42.602;23.470;2024-03-23T01:47:43;93526.13;;;1.46;72.58
11053;BME280;55230;42.602;23.470;2024-03-23T01:50:09;93530.47;;;1.45;72.84
11053;BME280;55230;42.602;23.470;2024-03-23T01:52:36;93522.91;;;1.40;72.39
11053;BME280;55230;42.602;23.470;2024-03-23T01:55:01;93531.72;;;1.34;73.12
11053;BME280;55230;42.602;23.470;2024-03-23T01:57:26;93533.03;;;1.31;72.84
11053;BME280;55230;42.602;23.470;2024-03-23T01:59:52;93535.47;;;1.23;73.90
11053;BME280;55230;42.602;23.470;2024-03-23T02:02:18;93526.44;;;1.17;73.12
11053;BME280;55230;42.602;23.470;2024-03-23T02:04:45;93529.91;;;1.21;73.29
11053;BME280;55230;42.602;23.470;2024-03-23T02:07:10;93540.22;;;1.16;73.66
11053;BME280;55230;42.602;23.470;2024-03-23T02:09:35;93527.75;;;1.14;73.88
11053;BME280;55230;42.602;23.470;2024-03-23T02:12:04;93528.97;;;1.03;74.11
11053;BME280;55230;42.602;23.470;2024-03-23T02:14:30;93536.59;;;1.03;73.86
11053;BME280;55230;42.602;23.470;2024-03-23T02:16:55;93533.31;;;1.02;74.46
11053;BME280;55230;42.602;23.470;2024-03-23T02:19:21;93537.63;;;1.02;74.98
11053;BME280;55230;42.602;23.470;2024-03-23T02:21:46;93539.41;;;0.88;74.52
11053;BME280;55230;42.602;23.470;2024-03-23T02:24:12;93538.09;;;0.90;74.82
11053;BME280;55230;42.602;23.470;2024-03-23T02:26:38;93542.44;;;0.90;75.31
11053;BME280;55230;42.602;23.470;2024-03-23T02:29:03;93544.34;;;0.98;74.31
11053;BME280;55230;42.602;23.470;2024-03-23T02:31:29;93550.56;;;0.92;74.36
11053;BME280;55230;42.602;23.470;2024-03-23T02:33:54;93550.56;;;0.92;75.12
11053;BME280;55230;42.602;23.470;2024-03-23T02:36:19;93541.81;;;0.98;74.61
11053;BME280;55230;42.602;23.470;2024-03-23T02:38:46;93546.22;;;0.92;74.44
11053;BME280;55230;42.602;23.470;2024-03-23T02:41:11;93539.81;;;0.95;74.35
11053;BME280;55230;42.602;23.470;2024-03-23T02:43:37;93540.28;;;0.97;74.43
11053;BME280;55230;42.602;23.470;2024-03-23T02:46:03;93533.22;;;0.94;75.13
11053;BME280;55230;42.602;23.470;2024-03-23T02:48:29;93534.25;;;0.93;74.41
11053;BME280;55230;42.602;23.470;2024-03-23T02:50:54;93526.50;;;0.84;74.15
11053;BME280;55230;42.602;23.470;2024-03-23T02:53:20;93534.06;;;0.89;74.64
11053;BME280;55230;42.602;23.470;2024-03-23T02:55:45;93529.78;;;0.85;75.49
11053;BME280;55230;42.602;23.470;2024-03-23T02:58:11;93525.28;;;0.82;75.36
11053;BME280;55230;42.602;23.470;2024-03-23T03:00:36;93526.59;;;0.79;74.69
11053;BME280;55230;42.602;23.470;2024-03-23T03:03:02;93521.22;;;0.81;74.74
11053;BME280;55230;42.602;23.470;2024-03-23T03:05:28;93521.72;;;0.83;74.63
11053;BME280;55230;42.602;23.470;2024-03-23T03:07:53;93525.84;;;0.79;74.86
11053;BME280;55230;42.602;23.470;2024-03-23T03:10:19;93516.69;;;0.78;74.74
11053;BME280;55230;42.602;23.470;2024-03-23T03:12:44;93517.38;;;0.83;74.70
11053;BME280;55230;42.602;23.470;2024-03-23T03:15:10;93527.72;;;0.87;73.79
11053;BME280;55230;42.602;23.470;2024-03-23T03:17:35;93523.66;;;0.86;74.33
11053;BME280;55230;42.602;23.470;2024-03-23T03:20:00;93524.41;;;0.86;74.68
11053;BME280;55230;42.602;23.470;2024-03-23T03:22:26;93527.25;;;0.85;74.40
11053;BME280;55230;42.602;23.470;2024-03-23T03:24:51;93519.53;;;0.90;73.49
11053;BME280;55230;42.602;23.470;2024-03-23T03:27:17;93519.53;;;1.03;71.64
11053;BME280;55230;42.602;23.470;2024-03-23T03:29:42;93533.03;;;1.31;71.21
11053;BME280;55230;42.602;23.470;2024-03-23T03:32:07;93534.63;;;1.27;71.65
11053;BME280;55230;42.602;23.470;2024-03-23T03:34:33;93520.28;;;1.18;71.70
11053;BME280;55230;42.602;23.470;2024-03-23T03:36:59;93523.69;;;1.13;72.25
11053;BME280;55230;42.602;23.470;2024-03-23T03:39:24;93521.50;;;1.07;72.27
11053;BME280;55230;42.602;23.470;2024-03-23T03:41:50;93528.13;;;1.08;72.98
11053;BME280;55230;42.602;23.470;2024-03-23T03:44:16;93527.38;;;1.07;73.08
11053;BME280;55230;42.602;23.470;2024-03-23T03:46:42;93526.31;;;0.94;71.60
11053;BME280;55230;42.602;23.470;2024-03-23T03:49:07;93539.34;;;1.07;71.42
11053;BME280;55230;42.602;23.470;2024-03-23T03:51:33;93529.72;;;1.03;71.17
11053;BME280;55230;42.602;23.470;2024-03-23T03:53:58;93535.97;;;0.97;71.71
11053;BME280;55230;42.602;23.470;2024-03-23T03:56:23;93530.09;;;0.97;71.38
11053;BME280;55230;42.602;23.470;2024-03-23T03:58:49;93524.16;;;1.01;70.42
11053;BME280;55230;42.602;23.470;2024-03-23T04:01:14;93533.22;;;0.94;71.38
11053;BME280;55230;42.602;23.470;2024-03-23T04:03:40;93518.22;;;0.92;70.40
11053;BME280;55230;42.602;23.470;2024-03-23T04:06:09;93521.31;;;0.89;70.79
11053;BME280;55230;42.602;23.470;2024-03-23T04:08:34;93526.13;;;0.91;71.78
11053;BME280;55230;42.602;23.470;2024-03-23T04:11:00;93530.88;;;0.97;71.54
11053;BME280;55230;42.602;23.470;2024-03-23T04:13:25;93523.09;;;0.89;71.96
11053;BME280;55230;42.602;23.470;2024-03-23T04:15:54;93534.72;;;0.81;73.33
11053;BME280;55230;42.602;23.470;2024-03-23T04:18:20;93540.03;;;0.52;74.82
11053;BME280;55230;42.602;23.470;2024-03-23T04:20:46;93533.00;;;0.63;74.19
11053;BME280;55230;42.602;23.470;2024-03-23T04:23:12;93522.06;;;0.62;74.55
11053;BME280;55230;42.602;23.470;2024-03-23T04:25:37;93537.22;;;0.67;74.47
11053;BME280;55230;42.602;23.470;2024-03-23T04:28:03;93532.88;;;0.68;74.34
11053;BME280;55230;42.602;23.470;2024-03-23T04:30:28;93536.88;;;0.74;74.15
11053;BME280;55230;42.602;23.470;2024-03-23T04:32:54;93541.19;;;0.74;74.49
11053;BME280;55230;42.602;23.470;2024-03-23T04:35:20;93537.06;;;0.64;74.54
11053;BME280;55230;42.602;23.470;2024-03-23T04:37:47;93544.00;;;0.58;75.93
11053;BME280;55230;42.602;23.470;2024-03-23T04:40:12;93543.72;;;0.60;74.17
11053;BME280;55230;42.602;23.470;2024-03-23T04:42:38;93545.25;;;0.75;75.49
11053;BME280;55230;42.602;23.470;2024-03-23T04:45:04;93541.81;;;0.98;74.82
11053;BME280;55230;42.602;23.470;2024-03-23T04:47:31;93554.06;;;1.23;73.92
11053;BME280;55230;42.602;23.470;2024-03-23T04:49:56;93542.94;;;1.47;72.62
11053;BME280;55230;42.602;23.470;2024-03-23T04:52:22;93547.00;;;1.48;73.14
11053;BME280;55230;42.602;23.470;2024-03-23T04:54:47;93550.03;;;1.86;72.26
11053;BME280;55230;42.602;23.470;2024-03-23T04:57:13;93545.94;;;2.21;70.72
11053;BME280;55230;42.602;23.470;2024-03-23T04:59:38;93550.66;;;2.50;69.47
11053;BME280;55230;42.602;23.470;2024-03-23T05:02:04;93548.06;;;2.72;68.71
11053;BME280;55230;42.602;23.470;2024-03-23T05:04:29;93552.66;;;2.84;67.90
11053;BME280;55230;42.602;23.470;2024-03-23T05:06:54;93545.56;;;2.80;68.36
11053;BME280;55230;42.602;23.470;2024-03-23T05:09:20;93555.22;;;2.39;69.34
11053;BME280;55230;42.602;23.470;2024-03-23T05:11:46;93554.78;;;2.90;68.66
11053;BME280;55230;42.602;23.470;2024-03-23T05:14:13;93547.47;;;3.45;65.85
11053;BME280;55230;42.602;23.470;2024-03-23T05:16:39;93548.88;;;3.86;65.18
11053;BME280;55230;42.602;23.470;2024-03-23T05:19:04;93558.19;;;3.73;67.43
11053;BME280;55230;42.602;23.470;2024-03-23T05:21:29;93555.81;;;4.20;65.16
11053;BME280;55230;42.602;23.470;2024-03-23T05:23:55;93547.31;;;3.42;64.75
11053;BME280;55230;42.602;23.470;2024-03-23T05:26:22;93547.69;;;2.56;68.42
11053;BME280;55230;42.602;23.470;2024-03-23T05:28:47;93547.28;;;2.40;69.53
11053;BME280;55230;42.602;23.470;2024-03-23T05:31:22;93548.88;;;2.50;69.03
11053;BME280;55230;42.602;23.470;2024-03-23T05:33:48;93545.69;;;2.53;68.69
11053;BME280;55230;42.602;23.470;2024-03-23T05:36:13;93544.06;;;2.79;68.68
11053;BME280;55230;42.602;23.470;2024-03-23T05:38:38;93549.47;;;2.78;67.46
11053;BME280;55230;42.602;23.470;2024-03-23T05:41:04;93538.38;;;2.83;67.80
11053;BME280;55230;42.602;23.470;2024-03-23T05:43:30;93539.53;;;2.76;67.54
11053;BME280;55230;42.602;23.470;2024-03-23T05:45:56;93542.00;;;2.90;67.51
11053;BME280;55230;42.602;23.470;2024-03-23T05:48:22;93539.56;;;2.85;66.97
11053;BME280;55230;42.602;23.470;2024-03-23T05:50:48;93533.34;;;3.00;67.09
11053;BME280;55230;42.602;23.470;2024-03-23T05:53:15;93531.09;;;3.07;66.84
11053;BME280;55230;42.602;23.470;2024-03-23T05:55:41;93535.44;;;2.98;68.80
11053;BME280;55230;42.602;23.470;2024-03-23T05:58:06;93536.50;;;2.74;68.71
11053;BME280;55230;42.602;23.470;2024-03-23T06:00:31;93543.63;;;2.86;69.38
11053;BME280;55230;42.602;23.470;2024-03-23T06:02:57;93534.06;;;3.40;67.49
11053;BME280;55230;42.602;23.470;2024-03-23T06:09:45;93505.88;;;3.23;66.97
11053;BME280;55230;42.602;23.470;2024-03-23T06:28:59;93543.16;;;3.15;72.07
11053;BME280;55230;42.602;23.470;2024-03-23T06:31:24;93547.88;;;3.30;71.89
11053;BME280;55230;42.602;23.470;2024-03-23T06:33:49;93543.72;;;3.52;71.78
11053;BME280;55230;42.602;23.470;2024-03-23T06:36:15;93540.00;;;3.75;70.25
11053;BME280;55230;42.602;23.470;2024-03-23T06:42:47;93550.84;;;4.06;68.83
11053;BME280;55230;42.602;23.470;2024-03-23T06:49:14;93528.28;;;4.98;63.77
11053;BME280;55230;42.602;23.470;2024-03-23T06:52:06;93516.25;;;4.81;65.84
11053;BME280;55230;42.602;23.470;2024-03-23T06:58:29;93543.16;;;5.43;66.06
11053;BME280;55230;42.602;23.470;2024-03-23T07:08:07;93530.47;;;5.46;63.48
11053;BME280;55230;42.602;23.470;2024-03-23T07:10:33;93529.75;;;6.17;64.13
11053;BME280;55230;42.602;23.470;2024-03-23T07:12:58;93528.25;;;5.66;63.53
11053;BME280;55230;42.602;23.470;2024-03-23T07:15:24;93527.00;;;5.51;64.28
11053;BME280;55230;42.602;23.470;2024-03-23T07:17:49;93521.31;;;5.87;62.90
11053;BME280;55230;42.602;23.470;2024-03-23T07:20:15;93521.44;;;5.70;61.88
11053;BME280;55230;42.602;23.470;2024-03-23T07:22:40;93528.13;;;6.12;60.28
11053;BME280;55230;42.602;23.470;2024-03-23T07:25:06;93520.22;;;6.17;59.90
11053;BME280;55230;42.602;23.470;2024-03-23T07:27:32;93532.22;;;6.25;60.98
11053;BME280;55230;42.602;23.470;2024-03-23T07:29:59;93520.19;;;6.38;59.39
11053;BME280;55230;42.602;23.470;2024-03-23T07:32:25;93521.69;;;5.77;61.90
11053;BME280;55230;42.602;23.470;2024-03-23T07:34:52;93515.88;;;5.68;62.60
11053;BME280;55230;42.602;23.470;2024-03-23T07:37:17;93515.41;;;5.95;61.43
11053;BME280;55230;42.602;23.470;2024-03-23T07:39:42;93507.06;;;6.19;59.90
11053;BME280;55230;42.602;23.470;2024-03-23T07:42:08;93509.50;;;6.36;58.05
11053;BME280;55230;42.602;23.470;2024-03-23T07:44:33;93515.31;;;6.57;58.85
11053;BME280;55230;42.602;23.470;2024-03-23T07:47:00;93508.75;;;6.36;58.59
11053;BME280;55230;42.602;23.470;2024-03-23T07:49:26;93518.09;;;6.85;57.41
11053;BME280;55230;42.602;23.470;2024-03-23T07:51:51;93515.38;;;6.82;57.18
11053;BME280;55230;42.602;23.470;2024-03-23T07:54:16;93515.25;;;6.66;58.28
11053;BME280;55230;42.602;23.470;2024-03-23T07:56:42;93514.66;;;6.93;57.62
11053;BME280;55230;42.602;23.470;2024-03-23T08:03:16;93516.06;;;7.64;56.59
11053;BME280;55230;42.602;23.470;2024-03-23T08:10:10;93504.22;;;6.65;58.45
11053;BME280;55230;42.602;23.470;2024-03-23T08:16:25;93500.41;;;6.84;58.22
11053;BME280;55230;42.602;23.470;2024-03-23T08:19:42;93498.78;;;7.64;57.82
11053;BME280;55230;42.602;23.470;2024-03-23T08:22:37;93498.16;;;7.07;56.45
11053;BME280;55230;42.602;23.470;2024-03-23T08:25:21;93512.19;;;7.58;56.32
11053;BME280;55230;42.602;23.470;2024-03-23T08:27:47;93501.38;;;7.04;56.74
11053;BME280;55230;42.602;23.470;2024-03-23T08:30:12;93510.56;;;7.78;56.67
11053;BME280;55230;42.602;23.470;2024-03-23T08:32:38;93507.16;;;7.49;55.45
11053;BME280;55230;42.602;23.470;2024-03-23T08:35:04;93504.38;;;7.54;57.39
11053;BME280;55230;42.602;23.470;2024-03-23T08:37:29;93506.22;;;7.54;56.94
11053;BME280;55230;42.602;23.470;2024-03-23T08:39:54;93486.97;;;7.76;55.82
11053;BME280;55230;42.602;23.470;2024-03-23T08:42:20;93503.00;;;7.97;57.32
11053;BME280;55230;42.602;23.470;2024-03-23T08:44:47;93495.28;;;8.37;55.55
11053;BME280;55230;42.602;23.470;2024-03-23T08:47:15;93495.06;;;8.02;54.76
11053;BME280;55230;42.602;23.470;2024-03-23T08:49:40;93490.66;;;8.02;54.89
11053;BME280;55230;42.602;23.470;2024-03-23T08:52:06;93488.41;;;8.29;54.37
11053;BME280;55230;42.602;23.470;2024-03-23T08:54:32;93490.63;;;9.02;54.82
11053;BME280;55230;42.602;23.470;2024-03-23T08:56:57;93485.09;;;10.05;51.95
11053;BME280;55230;42.602;23.470;2024-03-23T08:59:22;93471.19;;;10.71;48.60
11053;BME280;55230;42.602;23.470;2024-03-23T09:01:49;93464.31;;;10.59;50.44
11053;BME280;55230;42.602;23.470;2024-03-23T09:04:14;93470.13;;;10.53;47.48
11053;BME280;55230;42.602;23.470;2024-03-23T09:06:42;93470.44;;;9.39;49.98
11053;BME280;55230;42.602;23.470;2024-03-23T09:09:08;93461.13;;;9.89;51.27
11053;BME280;55230;42.602;23.470;2024-03-23T09:11:33;93464.66;;;9.61;50.11
11053;BME280;55230;42.602;23.470;2024-03-23T09:13:58;93457.41;;;9.86;49.55
11053;BME280;55230;42.602;23.470;2024-03-23T09:16:24;93451.06;;;10.83;48.79
11053;BME280;55230;42.602;23.470;2024-03-23T09:18:49;93442.97;;;11.91;45.02
11053;BME280;55230;42.602;23.470;2024-03-23T09:21:14;93449.31;;;10.45;47.82
11053;BME280;55230;42.602;23.470;2024-03-23T09:23:43;93445.78;;;9.96;48.75
11053;BME280;55230;42.602;23.470;2024-03-23T09:26:08;93444.41;;;9.83;48.59
11053;BME280;55230;42.602;23.470;2024-03-23T09:28:34;93442.88;;;10.59;48.03
11053;BME280;55230;42.602;23.470;2024-03-23T09:31:03;93433.75;;;11.37;45.70
11053;BME280;55230;42.602;23.470;2024-03-23T09:33:29;93428.44;;;11.03;43.65
11053;BME280;55230;42.602;23.470;2024-03-23T09:35:55;93428.03;;;11.01;44.66
11053;BME280;55230;42.602;23.470;2024-03-23T09:38:22;93420.13;;;10.26;45.57
11053;BME280;55230;42.602;23.470;2024-03-23T09:40:48;93424.84;;;11.11;43.04
11053;BME280;55230;42.602;23.470;2024-03-23T09:43:15;93422.19;;;11.31;43.95
11053;BME280;55230;42.602;23.470;2024-03-23T09:45:41;93429.16;;;10.55;45.12
11053;BME280;55230;42.602;23.470;2024-03-23T09:48:11;93415.75;;;11.21;44.54
11053;BME280;55230;42.602;23.470;2024-03-23T09:50:41;93415.56;;;11.63;43.16
11053;BME280;55230;42.602;23.470;2024-03-23T09:53:07;93393.09;;;12.41;40.49
11053;BME280;55230;42.602;23.470;2024-03-23T09:55:33;93403.19;;;12.94;37.45
11053;BME280;55230;42.602;23.470;2024-03-23T09:58:00;93391.69;;;13.46;38.00
11053;BME280;55230;42.602;23.470;2024-03-23T10:00:25;93395.47;;;11.53;43.58
11053;BME280;55230;42.602;23.470;2024-03-23T10:02:51;93382.75;;;11.14;43.99
11053;BME280;55230;42.602;23.470;2024-03-23T10:05:21;93389.63;;;10.80;44.45
11053;BME280;55230;42.602;23.470;2024-03-23T10:07:51;93383.56;;;11.48;42.13
11053;BME280;55230;42.602;23.470;2024-03-23T10:10:17;93381.28;;;12.44;40.02
11053;BME280;55230;42.602;23.470;2024-03-23T10:12:46;93385.97;;;11.94;40.90
11053;BME280;55230;42.602;23.470;2024-03-23T10:15:20;93386.63;;;11.28;41.89
11053;BME280;55230;42.602;23.470;2024-03-23T10:17:46;93380.00;;;11.90;40.96
11053;BME280;55230;42.602;23.470;2024-03-23T10:20:12;93386.44;;;12.40;40.43
11053;BME280;55230;42.602;23.470;2024-03-23T10:22:38;93378.31;;;11.75;41.93
11053;BME280;55230;42.602;23.470;2024-03-23T10:25:11;93374.03;;;12.64;40.26
11053;BME280;55230;42.602;23.470;2024-03-23T10:27:36;93370.44;;;12.79;40.94
11053;BME280;55230;42.602;23.470;2024-03-23T10:30:12;93367.22;;;12.96;40.30
11053;BME280;55230;42.602;23.470;2024-03-23T10:32:39;93353.34;;;14.23;38.36
11053;BME280;55230;42.602;23.470;2024-03-23T10:35:19;93356.09;;;13.57;38.54
11053;BME280;55230;42.602;23.470;2024-03-23T10:37:45;93344.94;;;12.91;38.68
11053;BME280;55230;42.602;23.470;2024-03-23T10:40:17;93338.69;;;13.65;37.89
11053;BME280;55230;42.602;23.470;2024-03-23T10:42:44;93344.63;;;13.69;35.52
11053;BME280;55230;42.602;23.470;2024-03-23T10:45:10;93333.13;;;13.01;38.07
11053;BME280;55230;42.602;23.470;2024-03-23T10:47:37;93325.03;;;13.10;37.87
11053;BME280;55230;42.602;23.470;2024-03-23T10:50:03;93332.75;;;13.75;36.59
11053;BME280;55230;42.602;23.470;2024-03-23T10:52:30;93333.66;;;13.21;38.01
11053;BME280;55230;42.602;23.470;2024-03-23T10:54:56;93331.91;;;12.33;37.42
11053;BME280;55230;42.602;23.470;2024-03-23T10:57:31;93315.16;;;12.75;37.12
11053;BME280;55230;42.602;23.470;2024-03-23T11:00:02;93317.13;;;12.92;36.95
11053;BME280;55230;42.602;23.470;2024-03-23T11:02:28;93305.16;;;12.77;36.91
11053;BME280;55230;42.602;23.470;2024-03-23T11:04:55;93292.47;;;13.26;35.71
11053;BME280;55230;42.602;23.470;2024-03-23T11:09:51;93289.97;;;13.48;36.62
11053;BME280;55230;42.602;23.470;2024-03-23T11:14:43;93279.28;;;13.67;35.71
11053;BME280;55230;42.602;23.470;2024-03-23T11:17:09;93270.59;;;13.31;35.14
11053;BME280;55230;42.602;23.470;2024-03-23T11:19:36;93270.59;;;13.31;36.64
11053;BME280;55230;42.602;23.470;2024-03-23T11:22:02;93269.06;;;13.16;35.18
11053;BME280;55230;42.602;23.470;2024-03-23T11:24:31;93256.03;;;13.12;34.95
11053;BME280;55230;42.602;23.470;2024-03-23T11:26:57;93259.66;;;14.33;36.48
11053;BME280;55230;42.602;23.470;2024-03-23T11:29:26;93251.31;;;15.27;33.88
11053;BME280;55230;42.602;23.470;2024-03-23T11:31:52;93247.72;;;14.82;31.64
11053;BME280;55230;42.602;23.470;2024-03-23T11:34:19;93237.72;;;14.27;32.45
11053;BME280;55230;42.602;23.470;2024-03-23T11:36:45;93240.25;;;13.56;33.19
11053;BME280;55230;42.602;23.470;2024-03-23T11:39:17;93235.13;;;14.06;34.21
11053;BME280;55230;42.602;23.470;2024-03-23T11:41:52;93222.78;;;14.92;32.15
11053;BME280;55230;42.602;23.470;2024-03-23T11:44:22;93231.41;;;14.28;32.47
11053;BME280;55230;42.602;23.470;2024-03-23T11:46:49;93217.91;;;14.97;32.57
11053;BME280;55230;42.602;23.470;2024-03-23T11:51:48;93215.31;;;14.97;31.48
11053;BME280;55230;42.602;23.470;2024-03-23T11:54:13;93211.16;;;15.14;33.13
11053;BME280;55230;42.602;23.470;2024-03-23T11:56:38;93207.63;;;14.05;32.75
11053;BME280;55230;42.602;23.470;2024-03-23T11:59:04;93199.06;;;14.15;32.14
11053;BME280;55230;42.602;23.470;2024-03-23T12:01:30;93184.56;;;14.14;33.43
11053;BME280;55230;42.602;23.470;2024-03-23T12:03:56;93186.28;;;15.02;32.94
11053;BME280;55230;42.602;23.470;2024-03-23T12:06:21;93180.25;;;15.16;32.94
11053;BME280;55230;42.602;23.470;2024-03-23T12:08:47;93169.03;;;15.26;32.25
11053;BME280;55230;42.602;23.470;2024-03-23T12:11:14;93174.19;;;13.89;31.75
11053;BME280;55230;42.602;23.470;2024-03-23T12:13:42;93176.00;;;13.53;34.23
11053;BME280;55230;42.602;23.470;2024-03-23T12:16:15;93162.22;;;14.66;35.03
11053;BME280;55230;42.602;23.470;2024-03-23T12:18:42;93163.88;;;15.19;32.48
11053;BME280;55230;42.602;23.470;2024-03-23T12:21:09;93162.03;;;15.79;30.24
11053;BME280;55230;42.602;23.470;2024-03-23T12:23:35;93153.97;;;14.89;31.58
11053;BME280;55230;42.602;23.470;2024-03-23T12:26:00;93162.25;;;14.31;33.33
11053;BME280;55230;42.602;23.470;2024-03-23T12:28:26;93153.38;;;15.30;32.75
11053;BME280;55230;42.602;23.470;2024-03-23T12:30:52;93151.69;;;14.91;32.33
11053;BME280;55230;42.602;23.470;2024-03-23T12:33:19;93146.69;;;14.24;31.71
11053;BME280;55230;42.602;23.470;2024-03-23T12:35:44;93141.06;;;14.54;33.42
11053;BME280;55230;42.602;23.470;2024-03-23T12:38:10;93152.25;;;13.97;33.11
11053;BME280;55230;42.602;23.470;2024-03-23T12:40:35;93136.19;;;14.59;32.41
11053;BME280;55230;42.602;23.470;2024-03-23T12:43:01;93131.22;;;15.00;32.18
11053;BME280;55230;42.602;23.470;2024-03-23T12:45:26;93126.56;;;14.46;32.65
11053;BME280;55230;42.602;23.470;2024-03-23T12:47:52;93126.56;;;14.35;33.75
11053;BME280;55230;42.602;23.470;2024-03-23T12:50:19;93123.97;;;14.46;32.34
11053;BME280;55230;42.602;23.470;2024-03-23T12:52:44;93127.69;;;14.27;32.38
11053;BME280;55230;42.602;23.470;2024-03-23T12:55:09;93116.03;;;14.85;32.35
11053;BME280;55230;42.602;23.470;2024-03-23T12:57:38;93103.47;;;14.58;33.35
11053;BME280;55230;42.602;23.470;2024-03-23T13:00:04;93107.50;;;14.77;32.74
11053;BME280;55230;42.602;23.470;2024-03-23T13:02:30;93099.34;;;15.41;32.06
11053;BME280;55230;42.602;23.470;2024-03-23T13:04:55;93101.78;;;15.07;32.15
11053;BME280;55230;42.602;23.470;2024-03-23T13:07:24;93092.66;;;14.67;32.17
11053;BME280;55230;42.602;23.470;2024-03-23T13:09:50;93092.78;;;15.15;31.81
11053;BME280;55230;42.602;23.470;2024-03-23T13:12:17;93090.06;;;14.60;33.16
11053;BME280;55230;42.602;23.470;2024-03-23T13:14:44;93087.44;;;14.71;32.33
11053;BME280;55230;42.602;23.470;2024-03-23T13:17:09;93083.25;;;14.91;32.24
11053;BME280;55230;42.602;23.470;2024-03-23T13:19:35;93080.53;;;15.09;32.66
11053;BME280;55230;42.602;23.470;2024-03-23T13:22:00;93075.03;;;14.92;32.12
11053;BME280;55230;42.602;23.470;2024-03-23T13:24:27;93078.16;;;14.59;32.05
11053;BME280;55230;42.602;23.470;2024-03-23T13:26:53;93066.84;;;14.97;32.30
11053;BME280;55230;42.602;23.470;2024-03-23T13:29:19;93071.75;;;14.88;31.94
11053;BME280;55230;42.602;23.470;2024-03-23T13:31:48;93072.84;;;14.87;33.05
11053;BME280;55230;42.602;23.470;2024-03-23T13:34:14;93049.78;;;15.45;31.75
11053;BME280;55230;42.602;23.470;2024-03-23T13:36:46;93053.03;;;16.04;29.46
11053;BME280;55230;42.602;23.470;2024-03-23T13:39:12;93065.38;;;14.93;32.41
11053;BME280;55230;42.602;23.470;2024-03-23T14:03:23;93021.22;;;16.13;30.66
11053;BME280;55230;42.602;23.470;2024-03-23T14:05:48;93026.06;;;15.77;31.61
11053;BME280;55230;42.602;23.470;2024-03-23T14:08:13;93032.44;;;16.10;28.52
11053;BME280;55230;42.602;23.470;2024-03-23T14:10:42;93025.28;;;15.80;30.14
11053;BME280;55230;42.602;23.470;2024-03-23T14:13:09;93016.06;;;15.23;30.12
11053;BME280;55230;42.602;23.470;2024-03-23T14:15:35;93019.63;;;15.44;30.58
11053;BME280;55230;42.602;23.470;2024-03-23T14:18:02;93031.78;;;15.09;29.96
11053;BME280;55230;42.602;23.470;2024-03-23T14:20:28;93018.25;;;15.28;30.68
11053;BME280;55230;42.602;23.470;2024-03-23T14:22:53;93026.53;;;15.16;29.60
11053;BME280;55230;42.602;23.470;2024-03-23T14:25:18;93015.97;;;15.34;28.99
11053;BME280;55230;42.602;23.470;2024-03-23T14:27:45;93009.03;;;15.65;28.71
11053;BME280;55230;42.602;23.470;2024-03-23T14:30:10;93010.81;;;15.75;29.11
11053;BME280;55230;42.602;23.470;2024-03-23T14:32:37;93004.63;;;15.96;30.19
11053;BME280;55230;42.602;23.470;2024-03-23T14:35:03;93008.66;;;16.04;28.69
11053;BME280;55230;42.602;23.470;2024-03-23T14:37:29;93004.41;;;16.17;29.44
11053;BME280;55230;42.602;23.470;2024-03-23T14:39:58;92994.19;;;15.96;29.24
11053;BME280;55230;42.602;23.470;2024-03-23T14:42:23;92990.47;;;15.97;29.62
11053;BME280;55230;42.602;23.470;2024-03-23T14:44:49;92997.53;;;16.00;28.81
11053;BME280;55230;42.602;23.470;2024-03-23T14:47:15;92994.13;;;16.03;28.76
11053;BME280;55230;42.602;23.470;2024-03-23T14:49:40;92990.59;;;16.20;30.16
11053;BME280;55230;42.602;23.470;2024-03-23T14:52:06;92991.44;;;16.10;28.01
11053;BME280;55230;42.602;23.470;2024-03-23T14:54:32;92997.31;;;16.18;28.89
11053;BME280;55230;42.602;23.470;2024-03-23T14:56:57;92992.97;;;16.08;29.45
11053;BME280;55230;42.602;23.470;2024-03-23T14:59:24;92993.06;;;15.97;29.33
11053;BME280;55230;42.602;23.470;2024-03-23T15:01:49;92990.41;;;16.04;28.42
11053;BME280;55230;42.602;23.470;2024-03-23T15:04:15;92986.69;;;16.01;30.04
11053;BME280;55230;42.602;23.470;2024-03-23T15:06:40;92982.75;;;15.86;29.76
11053;BME280;55230;42.602;23.470;2024-03-23T15:09:05;92979.09;;;15.80;28.56
11053;BME280;55230;42.602;23.470;2024-03-23T15:11:33;92973.09;;;15.83;28.47
11053;BME280;55230;42.602;23.470;2024-03-23T15:13:58;92984.44;;;15.66;28.69
11053;BME280;55230;42.602;23.470;2024-03-23T15:16:24;92968.81;;;15.62;27.67
11053;BME280;55230;42.602;23.470;2024-03-23T15:18:49;92972.66;;;15.47;27.75
11053;BME280;55230;42.602;23.470;2024-03-23T15:21:14;92967.59;;;15.29;28.00
11053;BME280;55230;42.602;23.470;2024-03-23T15:23:45;92964.19;;;15.40;28.05
11053;BME280;55230;42.602;23.470;2024-03-23T15:26:10;92967.44;;;15.47;28.59
11053;BME280;55230;42.602;23.470;2024-03-23T15:28:36;92964.88;;;15.44;28.80